sensor_id;sensor_type;location;lat;lon;timestamp;pressure;altitude;pressure_sealevel;temperature;humidity
23281;BME280;11809;56.390;-3.266;2022-08-03T00:01:26;99717.69;;;20.57;58.61
23281;BME280;11809;56.390;-3.266;2022-08-03T00:03:53;99715.03;;;20.57;58.18
23281;BME280;11809;56.390;-3.266;2022-08-03T00:06:20;99716.97;;;20.55;58.17
23281;BME280;11809;56.390;-3.266;2022-08-03T00:08:47;99732.31;;;20.53;58.30
23281;BME280;11809;56.390;-3.266;2022-08-03T00:11:14;99727.25;;;20.50;58.20
23281;BME280;11809;56.390;-3.266;2022-08-03T00:13:41;99727.25;;;20.50;57.97
23281;BME280;11809;56.390;-3.266;2022-08-03T00:16:08;99734.59;;;20.48;58.39
23281;BME280;11809;56.390;-3.266;2022-08-03T00:18:36;99725.72;;;20.47;58.38
23281;BME280;11809;56.390;-3.266;2022-08-03T00:21:04;99731.22;;;20.46;58.39
23281;BME280;11809;56.390;-3.266;2022-08-03T00:23:32;99728.56;;;20.46;58.33
23281;BME280;11809;56.390;-3.266;2022-08-03T00:26:19;99725.03;;;20.45;58.50
23281;BME280;11809;56.390;-3.266;2022-08-03T00:28:46;99734.88;;;20.45;57.80
23281;BME280;11809;56.390;-3.266;2022-08-03T00:31:13;99744.69;;;20.44;58.47
23281;BME280;11809;56.390;-3.266;2022-08-03T00:33:40;99737.84;;;20.42;58.17
23281;BME280;11809;56.390;-3.266;2022-08-03T00:36:24;99744.19;;;20.41;58.14
23281;BME280;11809;56.390;-3.266;2022-08-03T00:38:51;99739.13;;;20.38;58.29
23281;BME280;11809;56.390;-3.266;2022-08-03T00:41:17;99745.31;;;20.38;58.38
23281;BME280;11809;56.390;-3.266;2022-08-03T00:43:44;99740.94;;;20.37;58.38
23281;BME280;11809;56.390;-3.266;2022-08-03T00:46:13;99730.41;;;20.36;58.10
23281;BME280;11809;56.390;-3.266;2022-08-03T00:48:50;99728.72;;;20.35;58.27
23281;BME280;11809;56.390;-3.266;2022-08-03T00:51:19;99734.06;;;20.35;58.42
23281;BME280;11809;56.390;-3.266;2022-08-03T00:53:46;99725.38;;;20.33;58.11
23281;BME280;11809;56.390;-3.266;2022-08-03T00:56:14;99725.38;;;20.33;58.22
23281;BME280;11809;56.390;-3.266;2022-08-03T00:58:45;99723.69;;;20.32;58.29
23281;BME280;11809;56.390;-3.266;2022-08-03T01:01:13;99729.03;;;20.32;58.55
23281;BME280;11809;56.390;-3.266;2022-08-03T01:03:40;99739.69;;;20.32;58.68
23281;BME280;11809;56.390;-3.266;2022-08-03T01:06:31;99741.50;;;20.31;58.41
23281;BME280;11809;56.390;-3.266;2022-08-03T01:09:07;99745.31;;;20.29;58.41
23281;BME280;11809;56.390;-3.266;2022-08-03T01:11:39;99746.16;;;20.29;58.58
23281;BME280;11809;56.390;-3.266;2022-08-03T01:14:32;99751.50;;;20.29;58.49
23281;BME280;11809;56.390;-3.266;2022-08-03T01:17:19;99754.31;;;20.28;58.94
23281;BME280;11809;56.390;-3.266;2022-08-03T01:20:05;99741.00;;;20.28;58.37
23281;BME280;11809;56.390;-3.266;2022-08-03T01:31:10;99755.31;;;20.27;58.92
23281;BME280;11809;56.390;-3.266;2022-08-03T01:33:43;99751.94;;;20.25;58.72
23281;BME280;11809;56.390;-3.266;2022-08-03T01:36:13;99753.78;;;20.24;58.96
23281;BME280;11809;56.390;-3.266;2022-08-03T01:38:49;99756.28;;;20.26;59.02
23281;BME280;11809;56.390;-3.266;2022-08-03T01:41:20;99756.44;;;20.24;58.65
23281;BME280;11809;56.390;-3.266;2022-08-03T01:43:48;99754.88;;;20.22;58.33
23281;BME280;11809;56.390;-3.266;2022-08-03T01:46:37;99745.03;;;20.22;58.41
23281;BME280;11809;56.390;-3.266;2022-08-03T01:49:14;99755.16;;;20.19;58.19
23281;BME280;11809;56.390;-3.266;2022-08-03T01:51:44;99756.97;;;20.18;58.17
23281;BME280;11809;56.390;-3.266;2022-08-03T01:54:33;99753.44;;;20.18;58.10
23281;BME280;11809;56.390;-3.266;2022-08-03T01:57:01;99757.94;;;20.17;58.63
23281;BME280;11809;56.390;-3.266;2022-08-03T01:59:29;99762.47;;;20.17;58.36
23281;BME280;11809;56.390;-3.266;2022-08-03T02:01:58;99768.94;;;20.14;58.71
23281;BME280;11809;56.390;-3.266;2022-08-03T02:04:47;99756.56;;;20.13;58.20
23281;BME280;11809;56.390;-3.266;2022-08-03T02:07:16;99761.06;;;20.13;58.59
23281;BME280;11809;56.390;-3.266;2022-08-03T02:09:46;99768.22;;;20.12;58.29
23281;BME280;11809;56.390;-3.266;2022-08-03T02:12:16;99764.56;;;20.13;58.30
23281;BME280;11809;56.390;-3.266;2022-08-03T02:14:46;99754.06;;;20.12;58.22
23281;BME280;11809;56.390;-3.266;2022-08-03T02:17:14;99766.53;;;20.11;58.13
23281;BME280;11809;56.390;-3.266;2022-08-03T02:19:42;99750.66;;;20.10;58.39
23281;BME280;11809;56.390;-3.266;2022-08-03T02:22:11;99762.19;;;20.10;57.88
23281;BME280;11809;56.390;-3.266;2022-08-03T02:24:40;99757.69;;;20.11;58.05
23281;BME280;11809;56.390;-3.266;2022-08-03T02:27:30;99742.81;;;20.08;57.96
23281;BME280;11809;56.390;-3.266;2022-08-03T02:30:05;99743.94;;;20.06;58.13
23281;BME280;11809;56.390;-3.266;2022-08-03T02:32:38;99743.94;;;20.06;57.98
23281;BME280;11809;56.390;-3.266;2022-08-03T02:35:10;99738.47;;;20.07;57.80
23281;BME280;11809;56.390;-3.266;2022-08-03T02:37:46;99732.44;;;20.05;57.83
23281;BME280;11809;56.390;-3.266;2022-08-03T02:40:17;99733.41;;;20.04;57.91
23281;BME280;11809;56.390;-3.266;2022-08-03T02:42:45;99728.91;;;20.05;58.10
23281;BME280;11809;56.390;-3.266;2022-08-03T02:45:14;99729.91;;;20.04;57.96
23281;BME280;11809;56.390;-3.266;2022-08-03T02:47:44;99718.53;;;20.02;57.86
23281;BME280;11809;56.390;-3.266;2022-08-03T02:50:21;99707.72;;;20.03;57.98
23281;BME280;11809;56.390;-3.266;2022-08-03T02:52:51;99718.41;;;20.03;57.70
23281;BME280;11809;56.390;-3.266;2022-08-03T02:55:20;99709.56;;;20.03;57.94
23281;BME280;11809;56.390;-3.266;2022-08-03T02:57:49;99706.88;;;20.03;57.48
23281;BME280;11809;56.390;-3.266;2022-08-03T03:00:17;99706.19;;;20.01;57.52
23281;BME280;11809;56.390;-3.266;2022-08-03T03:03:00;99696.50;;;20.00;57.53
23281;BME280;11809;56.390;-3.266;2022-08-03T03:05:29;99711.66;;;19.99;57.52
23281;BME280;11809;56.390;-3.266;2022-08-03T03:08:18;99702.84;;;19.99;57.74
23281;BME280;11809;56.390;-3.266;2022-08-03T03:10:56;99709.16;;;19.98;57.74
23281;BME280;11809;56.390;-3.266;2022-08-03T03:13:24;99712.78;;;19.96;57.77
23281;BME280;11809;56.390;-3.266;2022-08-03T03:15:53;99705.63;;;19.97;57.92
23281;BME280;11809;56.390;-3.266;2022-08-03T03:18:22;99717.28;;;19.96;57.72
23281;BME280;11809;56.390;-3.266;2022-08-03T03:20:51;99707.47;;;19.96;57.75
23281;BME280;11809;56.390;-3.266;2022-08-03T03:23:23;99713.91;;;19.94;57.39
23281;BME280;11809;56.390;-3.266;2022-08-03T03:25:51;99714.75;;;19.94;57.72
23281;BME280;11809;56.390;-3.266;2022-08-03T03:28:18;99714.94;;;19.93;57.91
23281;BME280;11809;56.390;-3.266;2022-08-03T03:30:46;99714.06;;;19.92;57.68
23281;BME280;11809;56.390;-3.266;2022-08-03T03:33:19;99726.56;;;19.92;57.60
23281;BME280;11809;56.390;-3.266;2022-08-03T03:35:46;99733.88;;;19.90;57.81
23281;BME280;11809;56.390;-3.266;2022-08-03T03:38:14;99735.53;;;19.91;57.78
23281;BME280;11809;56.390;-3.266;2022-08-03T03:40:40;99736.66;;;19.88;57.78
23281;BME280;11809;56.390;-3.266;2022-08-03T03:43:09;99736.66;;;19.88;57.79
23281;BME280;11809;56.390;-3.266;2022-08-03T03:45:39;99735.00;;;19.87;58.04
23281;BME280;11809;56.390;-3.266;2022-08-03T03:48:07;99743.97;;;19.86;57.76
23281;BME280;11809;56.390;-3.266;2022-08-03T03:50:35;99736.94;;;19.85;58.23
23281;BME280;11809;56.390;-3.266;2022-08-03T03:53:03;99743.97;;;19.86;58.09
23281;BME280;11809;56.390;-3.266;2022-08-03T03:55:35;99736.94;;;19.85;58.35
23281;BME280;11809;56.390;-3.266;2022-08-03T03:58:22;99730.78;;;19.85;58.31
23281;BME280;11809;56.390;-3.266;2022-08-03T04:00:50;99735.13;;;19.86;58.39
23281;BME280;11809;56.390;-3.266;2022-08-03T04:03:19;99726.28;;;19.85;58.43
23281;BME280;11809;56.390;-3.266;2022-08-03T04:05:46;99727.41;;;19.83;58.38
23281;BME280;11809;56.390;-3.266;2022-08-03T04:08:32;99729.94;;;19.84;58.02
23281;BME280;11809;56.390;-3.266;2022-08-03T04:11:25;99714.06;;;19.83;58.11
23281;BME280;11809;56.390;-3.266;2022-08-03T04:16:30;99722.06;;;19.83;57.88
23281;BME280;11809;56.390;-3.266;2022-08-03T04:19:01;99724.91;;;19.81;57.70
23281;BME280;11809;56.390;-3.266;2022-08-03T04:21:29;99733.88;;;19.80;57.66
23281;BME280;11809;56.390;-3.266;2022-08-03T04:24:00;99742.88;;;19.79;57.77
23281;BME280;11809;56.390;-3.266;2022-08-03T04:26:30;99755.34;;;19.79;57.90
23281;BME280;11809;56.390;-3.266;2022-08-03T04:28:59;99742.16;;;19.77;57.81
23281;BME280;11809;56.390;-3.266;2022-08-03T04:31:28;99746.50;;;19.78;57.69
23281;BME280;11809;56.390;-3.266;2022-08-03T04:33:56;99767.00;;;19.78;57.88
23281;BME280;11809;56.390;-3.266;2022-08-03T04:36:25;99761.66;;;19.78;57.85
23281;BME280;11809;56.390;-3.266;2022-08-03T04:39:03;99773.16;;;19.78;58.08
23281;BME280;11809;56.390;-3.266;2022-08-03T04:41:30;99780.47;;;19.76;58.40
23281;BME280;11809;56.390;-3.266;2022-08-03T04:44:18;99771.19;;;19.80;59.04
23281;BME280;11809;56.390;-3.266;2022-08-03T04:46:55;99769.13;;;19.74;59.60
23281;BME280;11809;56.390;-3.266;2022-08-03T04:49:22;99775.81;;;19.59;59.31
23281;BME280;11809;56.390;-3.266;2022-08-03T04:51:50;99776.09;;;19.47;59.10
23281;BME280;11809;56.390;-3.266;2022-08-03T04:54:18;99779.72;;;19.36;59.24
23281;BME280;11809;56.390;-3.266;2022-08-03T04:56:45;99777.59;;;19.30;59.25
23281;BME280;11809;56.390;-3.266;2022-08-03T04:59:12;99776.47;;;19.23;59.34
23281;BME280;11809;56.390;-3.266;2022-08-03T05:01:39;99776.72;;;19.20;59.21
23281;BME280;11809;56.390;-3.266;2022-08-03T05:04:08;99773.66;;;19.15;59.24
23281;BME280;11809;56.390;-3.266;2022-08-03T05:06:35;99766.63;;;19.14;59.13
23281;BME280;11809;56.390;-3.266;2022-08-03T05:09:13;99766.88;;;19.11;58.83
23281;BME280;11809;56.390;-3.266;2022-08-03T05:11:40;99775.44;;;19.05;58.35
23281;BME280;11809;56.390;-3.266;2022-08-03T05:14:07;99778.38;;;19.02;58.27
23281;BME280;11809;56.390;-3.266;2022-08-03T05:16:33;99794.94;;;19.15;58.89
23281;BME280;11809;56.390;-3.266;2022-08-03T05:19:00;99801.72;;;19.28;59.57
23281;BME280;11809;56.390;-3.266;2022-08-03T05:21:27;99809.00;;;19.36;59.94
23281;BME280;11809;56.390;-3.266;2022-08-03T05:24:14;99818.31;;;19.42;59.87
23281;BME280;11809;56.390;-3.266;2022-08-03T05:26:41;99816.78;;;19.49;60.04
23281;BME280;11809;56.390;-3.266;2022-08-03T05:29:08;99812.88;;;19.53;60.31
23281;BME280;11809;56.390;-3.266;2022-08-03T05:31:35;99808.94;;;19.57;60.37
23281;BME280;11809;56.390;-3.266;2022-08-03T05:34:02;99813.03;;;19.61;60.38
23281;BME280;11809;56.390;-3.266;2022-08-03T05:36:29;99818.06;;;19.64;60.22
23281;BME280;11809;56.390;-3.266;2022-08-03T05:38:56;99824.97;;;19.66;60.35
23281;BME280;11809;56.390;-3.266;2022-08-03T05:41:28;99823.09;;;19.67;60.60
23281;BME280;11809;56.390;-3.266;2022-08-03T05:44:03;99830.84;;;19.70;60.83
23281;BME280;11809;56.390;-3.266;2022-08-03T05:46:30;99826.22;;;19.72;60.72
23281;BME280;11809;56.390;-3.266;2022-08-03T05:48:57;99826.91;;;19.74;60.74
23281;BME280;11809;56.390;-3.266;2022-08-03T05:51:24;99835.47;;;19.77;60.83
23281;BME280;11809;56.390;-3.266;2022-08-03T05:53:51;99830.13;;;19.77;60.76
23281;BME280;11809;56.390;-3.266;2022-08-03T05:56:21;99826.50;;;19.78;60.53
23281;BME280;11809;56.390;-3.266;2022-08-03T05:58:50;99829.84;;;19.80;60.88
23281;BME280;11809;56.390;-3.266;2022-08-03T06:01:19;99827.91;;;19.82;60.47
23281;BME280;11809;56.390;-3.266;2022-08-03T06:03:50;99832.25;;;19.83;60.77
23281;BME280;11809;56.390;-3.266;2022-08-03T06:06:17;99839.13;;;19.86;60.69
23281;BME280;11809;56.390;-3.266;2022-08-03T06:08:45;99831.97;;;19.86;60.70
23281;BME280;11809;56.390;-3.266;2022-08-03T06:11:12;99832.66;;;19.88;61.87
23281;BME280;11809;56.390;-3.266;2022-08-03T06:13:39;99836.88;;;19.91;61.49
23281;BME280;11809;56.390;-3.266;2022-08-03T06:16:07;99837.72;;;19.91;61.21
23281;BME280;11809;56.390;-3.266;2022-08-03T06:18:34;99831.53;;;19.91;61.23
23281;BME280;11809;56.390;-3.266;2022-08-03T06:21:02;99823.41;;;19.92;60.66
23281;BME280;11809;56.390;-3.266;2022-08-03T06:23:41;99836.47;;;19.95;60.78
23281;BME280;11809;56.390;-3.266;2022-08-03T06:26:20;99832.94;;;19.85;59.20
23281;BME280;11809;56.390;-3.266;2022-08-03T06:28:47;99840.78;;;19.77;59.04
23281;BME280;11809;56.390;-3.266;2022-08-03T06:31:19;99833.38;;;19.71;59.33
23281;BME280;11809;56.390;-3.266;2022-08-03T06:33:47;99840.94;;;19.66;58.81
23281;BME280;11809;56.390;-3.266;2022-08-03T06:36:33;99848.94;;;19.66;58.74
23281;BME280;11809;56.390;-3.266;2022-08-03T06:39:01;99843.31;;;19.69;59.16
23281;BME280;11809;56.390;-3.266;2022-08-03T06:41:28;99842.91;;;19.74;59.50
23281;BME280;11809;56.390;-3.266;2022-08-03T06:44:02;99842.50;;;19.78;59.38
23281;BME280;11809;56.390;-3.266;2022-08-03T06:46:30;99845.16;;;19.78;58.96
23281;BME280;11809;56.390;-3.266;2022-08-03T06:48:57;99841.78;;;19.76;58.66
23281;BME280;11809;56.390;-3.266;2022-08-03T06:51:24;99842.75;;;19.75;58.77
23281;BME280;11809;56.390;-3.266;2022-08-03T06:54:11;99851.88;;;19.73;58.60
23281;BME280;11809;56.390;-3.266;2022-08-03T06:56:38;99859.03;;;19.72;58.45
23281;BME280;11809;56.390;-3.266;2022-08-03T06:59:05;99848.38;;;19.72;58.12
23281;BME280;11809;56.390;-3.266;2022-08-03T07:01:31;99847.56;;;19.72;58.28
23281;BME280;11809;56.390;-3.266;2022-08-03T07:03:58;99849.50;;;19.70;58.33
23281;BME280;11809;56.390;-3.266;2022-08-03T07:06:26;99847.81;;;19.69;58.25
23281;BME280;11809;56.390;-3.266;2022-08-03T07:08:53;99845.16;;;19.69;58.23
23281;BME280;11809;56.390;-3.266;2022-08-03T07:11:25;99845.28;;;19.67;58.03
23281;BME280;11809;56.390;-3.266;2022-08-03T07:13:52;99841.75;;;19.67;58.42
23281;BME280;11809;56.390;-3.266;2022-08-03T07:16:19;99848.94;;;19.66;58.36
23281;BME280;11809;56.390;-3.266;2022-08-03T07:18:46;99859.59;;;19.66;58.21
23281;BME280;11809;56.390;-3.266;2022-08-03T07:21:14;99852.59;;;19.65;58.39
23281;BME280;11809;56.390;-3.266;2022-08-03T07:23:42;99856.94;;;19.66;58.16
23281;BME280;11809;56.390;-3.266;2022-08-03T07:26:09;99864.94;;;19.66;58.47
23281;BME280;11809;56.390;-3.266;2022-08-03T07:28:36;99863.25;;;19.65;58.19
23281;BME280;11809;56.390;-3.266;2022-08-03T07:31:03;99870.53;;;19.63;58.33
23281;BME280;11809;56.390;-3.266;2022-08-03T07:33:30;99881.22;;;19.63;58.79
23281;BME280;11809;56.390;-3.266;2022-08-03T07:35:57;99869.00;;;19.61;58.63
23281;BME280;11809;56.390;-3.266;2022-08-03T07:38:24;99865.47;;;19.60;58.75
23281;BME280;11809;56.390;-3.266;2022-08-03T07:40:52;99874.31;;;19.61;58.49
23281;BME280;11809;56.390;-3.266;2022-08-03T07:43:19;99879.78;;;19.59;58.64
23281;BME280;11809;56.390;-3.266;2022-08-03T07:45:46;99878.13;;;19.58;58.89
23281;BME280;11809;56.390;-3.266;2022-08-03T07:48:13;99878.13;;;19.58;58.77
23281;BME280;11809;56.390;-3.266;2022-08-03T07:50:40;99886.22;;;19.57;58.67
23281;BME280;11809;56.390;-3.266;2022-08-03T07:53:07;99885.25;;;19.58;58.87
23281;BME280;11809;56.390;-3.266;2022-08-03T07:55:34;99884.41;;;19.57;58.95
23281;BME280;11809;56.390;-3.266;2022-08-03T07:58:03;99881.75;;;19.57;59.24
23281;BME280;11809;56.390;-3.266;2022-08-03T08:00:31;99883.56;;;19.57;58.92
23281;BME280;11809;56.390;-3.266;2022-08-03T08:02:58;99885.38;;;19.56;59.06
23281;BME280;11809;56.390;-3.266;2022-08-03T08:05:26;99895.06;;;19.57;58.83
23281;BME280;11809;56.390;-3.266;2022-08-03T08:07:53;99891.72;;;19.55;58.99
23281;BME280;11809;56.390;-3.266;2022-08-03T08:10:21;99903.34;;;19.54;58.91
23281;BME280;11809;56.390;-3.266;2022-08-03T08:12:48;99895.34;;;19.54;59.09
23281;BME280;11809;56.390;-3.266;2022-08-03T08:15:16;99898.00;;;19.54;59.26
23281;BME280;11809;56.390;-3.266;2022-08-03T08:17:50;99896.34;;;19.53;59.16
23281;BME280;11809;56.390;-3.266;2022-08-03T08:20:20;99896.34;;;19.53;59.17
23281;BME280;11809;56.390;-3.266;2022-08-03T08:22:57;99899.97;;;19.52;59.16
23281;BME280;11809;56.390;-3.266;2022-08-03T08:25:28;99907.00;;;19.53;59.46
23281;BME280;11809;56.390;-3.266;2022-08-03T08:27:55;99898.28;;;19.51;59.35
23281;BME280;11809;56.390;-3.266;2022-08-03T08:30:43;99908.94;;;19.51;59.17
23281;BME280;11809;56.390;-3.266;2022-08-03T08:33:10;99911.59;;;19.51;59.13
23281;BME280;11809;56.390;-3.266;2022-08-03T08:35:50;99916.13;;;19.51;59.17
23281;BME280;11809;56.390;-3.266;2022-08-03T08:38:17;99921.56;;;19.49;59.33
23281;BME280;11809;56.390;-3.266;2022-08-03T08:40:45;99925.94;;;19.50;59.28
23281;BME280;11809;56.390;-3.266;2022-08-03T08:43:11;99920.59;;;19.50;59.19
23281;BME280;11809;56.390;-3.266;2022-08-03T08:45:40;99925.06;;;19.50;59.27
23281;BME280;11809;56.390;-3.266;2022-08-03T08:48:08;99921.56;;;19.49;58.85
23281;BME280;11809;56.390;-3.266;2022-08-03T08:50:36;99925.19;;;19.48;59.15
23281;BME280;11809;56.390;-3.266;2022-08-03T08:53:06;99924.22;;;19.49;59.17
23281;BME280;11809;56.390;-3.266;2022-08-03T08:55:36;99916.22;;;19.49;59.10
23281;BME280;11809;56.390;-3.266;2022-08-03T08:58:25;99924.94;;;19.51;59.30
23281;BME280;11809;56.390;-3.266;2022-08-03T09:00:54;99925.78;;;19.52;59.16
23281;BME280;11809;56.390;-3.266;2022-08-03T09:03:21;99930.25;;;19.51;58.91
23281;BME280;11809;56.390;-3.266;2022-08-03T09:05:58;99923.09;;;19.52;58.96
23281;BME280;11809;56.390;-3.266;2022-08-03T09:08:25;99932.91;;;19.51;58.92
23281;BME280;11809;56.390;-3.266;2022-08-03T09:10:52;99924.22;;;19.49;58.69
23281;BME280;11809;56.390;-3.266;2022-08-03T09:13:19;99934.78;;;19.51;58.74
23281;BME280;11809;56.390;-3.266;2022-08-03T09:15:46;99927.59;;;19.51;58.99
23281;BME280;11809;56.390;-3.266;2022-08-03T09:18:29;99930.41;;;19.50;58.54
23281;BME280;11809;56.390;-3.266;2022-08-03T09:21:19;99927.75;;;19.50;58.70
23281;BME280;11809;56.390;-3.266;2022-08-03T09:24:04;99933.91;;;19.50;58.74
23281;BME280;11809;56.390;-3.266;2022-08-03T09:26:38;99934.78;;;19.51;58.64
23281;BME280;11809;56.390;-3.266;2022-08-03T09:29:10;99933.91;;;19.50;58.62
23281;BME280;11809;56.390;-3.266;2022-08-03T09:31:42;99936.59;;;19.50;58.36
23281;BME280;11809;56.390;-3.266;2022-08-03T09:34:15;99938.41;;;19.50;58.39
23281;BME280;11809;56.390;-3.266;2022-08-03T09:39:22;99942.88;;;19.49;58.51
23281;BME280;11809;56.390;-3.266;2022-08-03T09:42:16;99949.91;;;19.50;58.50
23281;BME280;11809;56.390;-3.266;2022-08-03T09:44:46;99947.25;;;19.50;58.51
23281;BME280;11809;56.390;-3.266;2022-08-03T09:47:16;99952.56;;;19.50;58.48
23281;BME280;11809;56.390;-3.266;2022-08-03T09:50:02;99961.41;;;19.51;58.48
23281;BME280;11809;56.390;-3.266;2022-08-03T09:55:15;99974.75;;;19.51;58.59
23281;BME280;11809;56.390;-3.266;2022-08-03T09:58:06;99982.75;;;19.51;58.52
23281;BME280;11809;56.390;-3.266;2022-08-03T10:00:58;99983.56;;;19.51;58.88
23281;BME280;11809;56.390;-3.266;2022-08-03T10:03:28;99982.75;;;19.51;58.65
23281;BME280;11809;56.390;-3.266;2022-08-03T10:05:56;99981.75;;;19.52;58.62
23281;BME280;11809;56.390;-3.266;2022-08-03T10:08:25;99967.56;;;19.51;58.75
23281;BME280;11809;56.390;-3.266;2022-08-03T10:10:52;99985.25;;;19.52;58.70
23281;BME280;11809;56.390;-3.266;2022-08-03T10:13:21;99992.28;;;19.53;59.02
23281;BME280;11809;56.390;-3.266;2022-08-03T10:15:49;100007.28;;;19.54;58.67
23281;BME280;11809;56.390;-3.266;2022-08-03T10:18:36;99992.00;;;19.56;59.02
23281;BME280;11809;56.390;-3.266;2022-08-03T10:21:07;99983.03;;;19.57;59.11
23281;BME280;11809;56.390;-3.266;2022-08-03T10:23:37;99971.53;;;19.57;59.17
23281;BME280;11809;56.390;-3.266;2022-08-03T10:26:06;99993.44;;;19.60;59.00
23281;BME280;11809;56.390;-3.266;2022-08-03T10:28:36;99994.00;;;19.64;58.78
23281;BME280;11809;56.390;-3.266;2022-08-03T10:31:12;100006.34;;;19.65;58.58
23281;BME280;11809;56.390;-3.266;2022-08-03T10:33:45;100007.19;;;19.65;58.89
23281;BME280;11809;56.390;-3.266;2022-08-03T10:36:21;100006.34;;;19.65;58.67
23281;BME280;11809;56.390;-3.266;2022-08-03T10:38:50;100012.53;;;19.65;58.96
23281;BME280;11809;56.390;-3.266;2022-08-03T10:41:25;100012.53;;;19.65;59.07
23281;BME280;11809;56.390;-3.266;2022-08-03T10:44:03;100009.84;;;19.65;59.10
23281;BME280;11809;56.390;-3.266;2022-08-03T10:46:32;100021.38;;;19.66;59.25
23281;BME280;11809;56.390;-3.266;2022-08-03T10:49:00;100022.94;;;19.68;59.04
23281;BME280;11809;56.390;-3.266;2022-08-03T10:51:28;100015.78;;;19.69;58.72
23281;BME280;11809;56.390;-3.266;2022-08-03T10:53:58;100026.28;;;19.70;58.72
23281;BME280;11809;56.390;-3.266;2022-08-03T11:02:13;100032.31;;;19.72;59.30
23281;BME280;11809;56.390;-3.266;2022-08-03T11:04:41;100030.25;;;19.76;59.00
23281;BME280;11809;56.390;-3.266;2022-08-03T11:07:21;100031.09;;;19.76;58.96
23281;BME280;11809;56.390;-3.266;2022-08-03T11:09:53;100031.81;;;19.78;58.77
23281;BME280;11809;56.390;-3.266;2022-08-03T11:12:29;100043.16;;;19.80;59.19
23281;BME280;11809;56.390;-3.266;2022-08-03T11:15:03;100034.06;;;19.83;58.67
23281;BME280;11809;56.390;-3.266;2022-08-03T11:17:32;100058.91;;;19.83;59.51
23281;BME280;11809;56.390;-3.266;2022-08-03T11:20:43;100045.16;;;19.88;59.37
23281;BME280;11809;56.390;-3.266;2022-08-03T11:23:10;100051.06;;;19.91;59.44
23281;BME280;11809;56.390;-3.266;2022-08-03T11:26:10;100049.97;;;19.94;59.20
23281;BME280;11809;56.390;-3.266;2022-08-03T11:28:40;100058.66;;;19.96;58.87
23281;BME280;11809;56.390;-3.266;2022-08-03T11:34:12;100078.19;;;19.96;59.17
23281;BME280;11809;56.390;-3.266;2022-08-03T11:37:18;100083.41;;;19.98;59.15
23281;BME280;11809;56.390;-3.266;2022-08-03T11:39:51;100077.22;;;19.98;59.37
23281;BME280;11809;56.390;-3.266;2022-08-03T11:44:53;100079.47;;;20.02;59.61
23281;BME280;11809;56.390;-3.266;2022-08-03T11:47:21;100071.34;;;20.04;59.55
23281;BME280;11809;56.390;-3.266;2022-08-03T11:49:50;100096.06;;;20.06;59.60
23281;BME280;11809;56.390;-3.266;2022-08-03T11:52:17;100080.06;;;20.06;59.49
23281;BME280;11809;56.390;-3.266;2022-08-03T11:54:53;100085.13;;;20.09;59.94
23281;BME280;11809;56.390;-3.266;2022-08-03T11:57:32;100093.81;;;20.11;59.31
23281;BME280;11809;56.390;-3.266;2022-08-03T12:00:25;100083.84;;;20.13;59.17
23281;BME280;11809;56.390;-3.266;2022-08-03T12:02:54;100092.56;;;20.15;59.16
23281;BME280;11809;56.390;-3.266;2022-08-03T12:08:06;100099.19;;;20.20;58.87
23281;BME280;11809;56.390;-3.266;2022-08-03T12:10:34;100117.03;;;20.20;58.82
23281;BME280;11809;56.390;-3.266;2022-08-03T12:13:03;100121.25;;;20.22;58.98
23281;BME280;11809;56.390;-3.266;2022-08-03T12:15:56;100128.19;;;20.25;58.78
23281;BME280;11809;56.390;-3.266;2022-08-03T12:18:24;100128.19;;;20.25;58.59
23281;BME280;11809;56.390;-3.266;2022-08-03T12:20:54;100131.56;;;20.27;58.18
23281;BME280;11809;56.390;-3.266;2022-08-03T12:23:28;100127.91;;;20.28;58.19
23281;BME280;11809;56.390;-3.266;2022-08-03T12:26:09;100134.66;;;20.32;57.97
23281;BME280;11809;56.390;-3.266;2022-08-03T12:28:36;100134.50;;;20.33;57.67
23281;BME280;11809;56.390;-3.266;2022-08-03T12:31:06;100128.19;;;20.34;57.85
23281;BME280;11809;56.390;-3.266;2022-08-03T12:36:25;100136.06;;;20.36;58.25
23281;BME280;11809;56.390;-3.266;2022-08-03T12:39:04;100129.75;;;20.37;58.10
23281;BME280;11809;56.390;-3.266;2022-08-03T12:41:37;100144.06;;;20.36;58.74
23281;BME280;11809;56.390;-3.266;2022-08-03T12:44:06;100137.75;;;20.37;58.66
23281;BME280;11809;56.390;-3.266;2022-08-03T12:46:39;100139.72;;;20.35;58.75
23281;BME280;11809;56.390;-3.266;2022-08-03T12:49:14;100144.91;;;20.36;59.11
23281;BME280;11809;56.390;-3.266;2022-08-03T12:59:31;100162.47;;;20.39;58.42
23281;BME280;11809;56.390;-3.266;2022-08-03T13:02:02;100160.81;;;20.38;58.72
23281;BME280;11809;56.390;-3.266;2022-08-03T13:04:35;100164.03;;;20.41;58.55
23281;BME280;11809;56.390;-3.266;2022-08-03T13:07:06;100162.47;;;20.39;58.79
23281;BME280;11809;56.390;-3.266;2022-08-03T13:09:43;100159.97;;;20.37;58.57
23281;BME280;11809;56.390;-3.266;2022-08-03T13:12:13;100164.75;;;20.43;58.72
23281;BME280;11809;56.390;-3.266;2022-08-03T13:14:41;100173.03;;;20.40;58.44
23281;BME280;11809;56.390;-3.266;2022-08-03T13:17:09;100176.81;;;20.38;58.66
23281;BME280;11809;56.390;-3.266;2022-08-03T13:19:37;100175.13;;;20.37;58.84
23281;BME280;11809;56.390;-3.266;2022-08-03T13:22:12;100181.16;;;20.39;58.96
23281;BME280;11809;56.390;-3.266;2022-08-03T13:24:41;100176.94;;;20.36;59.15
23281;BME280;11809;56.390;-3.266;2022-08-03T13:27:08;100170.75;;;20.36;59.70
23281;BME280;11809;56.390;-3.266;2022-08-03T13:29:56;100184.09;;;20.36;59.44
23281;BME280;11809;56.390;-3.266;2022-08-03T13:32:23;100191.13;;;20.37;59.42
23281;BME280;11809;56.390;-3.266;2022-08-03T13:34:50;100187.75;;;20.35;59.54
23281;BME280;11809;56.390;-3.266;2022-08-03T13:37:17;100204.47;;;20.37;59.59
23281;BME280;11809;56.390;-3.266;2022-08-03T13:39:44;100200.09;;;20.36;59.55
23281;BME280;11809;56.390;-3.266;2022-08-03T13:42:24;100195.50;;;20.38;59.74
23281;BME280;11809;56.390;-3.266;2022-08-03T13:44:51;100197.06;;;20.40;59.77
23281;BME280;11809;56.390;-3.266;2022-08-03T13:47:20;100201.53;;;20.40;59.49
23281;BME280;11809;56.390;-3.266;2022-08-03T13:49:49;100205.63;;;20.44;59.16
23281;BME280;11809;56.390;-3.266;2022-08-03T13:52:33;100213.63;;;20.44;58.73